sensor_id;sensor_type;location;lat;lon;timestamp;P1;durP1;ratioP1;P2;durP2;ratioP2
46230;SDS011;31949;51.404;-0.038;2022-07-23T00:00:18;4.53;;;2.00;;
46230;SDS011;31949;51.404;-0.038;2022-07-23T00:02:46;4.47;;;2.50;;
46230;SDS011;31949;51.404;-0.038;2022-07-23T00:05:13;2.95;;;1.83;;
46230;SDS011;31949;51.404;-0.038;2022-07-23T00:07:40;3.45;;;1.85;;
46230;SDS011;31949;51.404;-0.038;2022-07-23T00:10:08;2.72;;;1.88;;
46230;SDS011;31949;51.404;-0.038;2022-07-23T00:12:35;4.28;;;1.88;;
46230;SDS011;31949;51.404;-0.038;2022-07-23T00:15:17;2.38;;;1.42;;
46230;SDS011;31949;51.404;-0.038;2022-07-23T00:17:45;3.10;;;1.58;;
46230;SDS011;31949;51.404;-0.038;2022-07-23T00:20:12;2.08;;;1.63;;
46230;SDS011;31949;51.404;-0.038;2022-07-23T00:22:47;4.75;;;1.83;;
46230;SDS011;31949;51.404;-0.038;2022-07-23T00:25:18;3.50;;;1.90;;
46230;SDS011;31949;51.404;-0.038;2022-07-23T00:27:57;2.60;;;1.75;;
46230;SDS011;31949;51.404;-0.038;2022-07-23T00:30:26;5.22;;;1.85;;
46230;SDS011;31949;51.404;-0.038;2022-07-23T00:32:58;3.63;;;2.10;;
46230;SDS011;31949;51.404;-0.038;2022-07-23T00:35:28;6.50;;;2.28;;
46230;SDS011;31949;51.404;-0.038;2022-07-23T00:37:57;5.88;;;2.47;;
46230;SDS011;31949;51.404;-0.038;2022-07-23T00:40:25;2.42;;;1.80;;
46230;SDS011;31949;51.404;-0.038;2022-07-23T00:42:53;4.40;;;2.17;;
46230;SDS011;31949;51.404;-0.038;2022-07-23T00:45:21;3.58;;;2.40;;
46230;SDS011;31949;51.404;-0.038;2022-07-23T00:47:48;4.35;;;1.95;;
46230;SDS011;31949;51.404;-0.038;2022-07-23T00:50:15;2.38;;;1.75;;
46230;SDS011;31949;51.404;-0.038;2022-07-23T00:52:43;3.25;;;1.67;;
46230;SDS011;31949;51.404;-0.038;2022-07-23T00:55:12;4.40;;;1.80;;
46230;SDS011;31949;51.404;-0.038;2022-07-23T00:57:56;3.20;;;1.83;;
46230;SDS011;31949;51.404;-0.038;2022-07-23T01:00:25;3.38;;;2.22;;
46230;SDS011;31949;51.404;-0.038;2022-07-23T01:02:52;2.38;;;1.83;;
46230;SDS011;31949;51.404;-0.038;2022-07-23T01:05:19;7.05;;;2.20;;
46230;SDS011;31949;51.404;-0.038;2022-07-23T01:07:49;4.57;;;1.73;;
46230;SDS011;31949;51.404;-0.038;2022-07-23T01:10:22;2.60;;;1.70;;
46230;SDS011;31949;51.404;-0.038;2022-07-23T01:13:00;4.30;;;2.08;;
46230;SDS011;31949;51.404;-0.038;2022-07-23T01:15:30;3.20;;;1.70;;
46230;SDS011;31949;51.404;-0.038;2022-07-23T01:17:58;3.20;;;1.90;;
46230;SDS011;31949;51.404;-0.038;2022-07-23T01:20:26;4.00;;;1.77;;
46230;SDS011;31949;51.404;-0.038;2022-07-23T01:22:54;3.35;;;2.10;;
46230;SDS011;31949;51.404;-0.038;2022-07-23T01:25:21;5.22;;;2.15;;
46230;SDS011;31949;51.404;-0.038;2022-07-23T01:27:56;4.30;;;2.33;;
46230;SDS011;31949;51.404;-0.038;2022-07-23T01:30:24;3.63;;;1.80;;
46230;SDS011;31949;51.404;-0.038;2022-07-23T01:32:51;2.72;;;2.13;;
46230;SDS011;31949;51.404;-0.038;2022-07-23T01:35:28;5.03;;;2.75;;
46230;SDS011;31949;51.404;-0.038;2022-07-23T01:38:03;3.15;;;2.05;;
46230;SDS011;31949;51.404;-0.038;2022-07-23T01:40:30;4.47;;;2.10;;
46230;SDS011;31949;51.404;-0.038;2022-07-23T01:42:58;3.17;;;2.03;;
46230;SDS011;31949;51.404;-0.038;2022-07-23T01:45:30;2.55;;;2.17;;
46230;SDS011;31949;51.404;-0.038;2022-07-23T01:47:57;3.10;;;2.42;;
46230;SDS011;31949;51.404;-0.038;2022-07-23T01:50:25;5.18;;;2.30;;
46230;SDS011;31949;51.404;-0.038;2022-07-23T01:53:31;4.72;;;2.10;;
46230;SDS011;31949;51.404;-0.038;2022-07-23T01:56:06;3.55;;;1.92;;
46230;SDS011;31949;51.404;-0.038;2022-07-23T01:58:43;4.53;;;1.73;;
46230;SDS011;31949;51.404;-0.038;2022-07-23T02:01:10;5.47;;;2.35;;
46230;SDS011;31949;51.404;-0.038;2022-07-23T02:03:37;4.38;;;2.22;;
46230;SDS011;31949;51.404;-0.038;2022-07-23T02:06:05;4.85;;;2.50;;
46230;SDS011;31949;51.404;-0.038;2022-07-23T02:08:34;4.18;;;1.60;;
46230;SDS011;31949;51.404;-0.038;2022-07-23T02:11:13;5.68;;;1.80;;
46230;SDS011;31949;51.404;-0.038;2022-07-23T02:13:40;3.83;;;2.15;;
46230;SDS011;31949;51.404;-0.038;2022-07-23T02:16:07;3.03;;;2.13;;
46230;SDS011;31949;51.404;-0.038;2022-07-23T02:18:34;2.90;;;2.17;;
46230;SDS011;31949;51.404;-0.038;2022-07-23T02:21:02;3.45;;;2.40;;
46230;SDS011;31949;51.404;-0.038;2022-07-23T02:23:29;4.22;;;1.80;;
46230;SDS011;31949;51.404;-0.038;2022-07-23T02:25:56;5.95;;;2.30;;
46230;SDS011;31949;51.404;-0.038;2022-07-23T02:28:23;4.53;;;2.58;;
46230;SDS011;31949;51.404;-0.038;2022-07-23T02:30:50;3.55;;;1.90;;
46230;SDS011;31949;51.404;-0.038;2022-07-23T02:33:18;5.03;;;2.85;;
46230;SDS011;31949;51.404;-0.038;2022-07-23T02:35:45;5.07;;;2.35;;
46230;SDS011;31949;51.404;-0.038;2022-07-23T02:38:13;3.42;;;2.00;;
46230;SDS011;31949;51.404;-0.038;2022-07-23T02:40:40;3.92;;;2.33;;
46230;SDS011;31949;51.404;-0.038;2022-07-23T02:43:07;4.93;;;2.25;;
46230;SDS011;31949;51.404;-0.038;2022-07-23T02:45:35;4.80;;;1.90;;
46230;SDS011;31949;51.404;-0.038;2022-07-23T02:48:02;2.30;;;1.95;;
46230;SDS011;31949;51.404;-0.038;2022-07-23T02:50:30;3.13;;;2.10;;
46230;SDS011;31949;51.404;-0.038;2022-07-23T02:52:59;3.42;;;2.00;;
46230;SDS011;31949;51.404;-0.038;2022-07-23T02:55:28;2.85;;;2.20;;
46230;SDS011;31949;51.404;-0.038;2022-07-23T02:57:59;4.90;;;2.40;;
46230;SDS011;31949;51.404;-0.038;2022-07-23T03:00:27;3.58;;;1.95;;
46230;SDS011;31949;51.404;-0.038;2022-07-23T03:02:54;4.88;;;2.50;;
46230;SDS011;31949;51.404;-0.038;2022-07-23T03:05:21;3.83;;;2.05;;
46230;SDS011;31949;51.404;-0.038;2022-07-23T03:07:48;2.92;;;2.20;;
46230;SDS011;31949;51.404;-0.038;2022-07-23T03:10:15;2.80;;;2.25;;
46230;SDS011;31949;51.404;-0.038;2022-07-23T03:12:43;4.85;;;1.75;;
46230;SDS011;31949;51.404;-0.038;2022-07-23T03:15:10;3.00;;;1.70;;
46230;SDS011;31949;51.404;-0.038;2022-07-23T03:17:37;4.00;;;1.92;;
46230;SDS011;31949;51.404;-0.038;2022-07-23T03:20:05;3.92;;;2.03;;
46230;SDS011;31949;51.404;-0.038;2022-07-23T03:22:33;2.85;;;1.85;;
46230;SDS011;31949;51.404;-0.038;2022-07-23T03:25:02;4.97;;;2.35;;
46230;SDS011;31949;51.404;-0.038;2022-07-23T03:27:33;4.60;;;2.40;;
46230;SDS011;31949;51.404;-0.038;2022-07-23T03:30:00;2.13;;;1.88;;
46230;SDS011;31949;51.404;-0.038;2022-07-23T03:32:28;4.50;;;2.35;;
46230;SDS011;31949;51.404;-0.038;2022-07-23T03:34:56;4.53;;;2.53;;
46230;SDS011;31949;51.404;-0.038;2022-07-23T03:37:23;3.63;;;2.30;;
46230;SDS011;31949;51.404;-0.038;2022-07-23T03:39:50;5.03;;;2.33;;
46230;SDS011;31949;51.404;-0.038;2022-07-23T03:42:18;3.03;;;2.58;;
46230;SDS011;31949;51.404;-0.038;2022-07-23T03:44:45;4.28;;;2.53;;
46230;SDS011;31949;51.404;-0.038;2022-07-23T03:47:13;4.93;;;2.35;;
46230;SDS011;31949;51.404;-0.038;2022-07-23T03:49:40;4.93;;;1.58;;
46230;SDS011;31949;51.404;-0.038;2022-07-23T03:52:08;3.50;;;2.38;;
46230;SDS011;31949;51.404;-0.038;2022-07-23T03:54:35;3.75;;;2.25;;
46230;SDS011;31949;51.404;-0.038;2022-07-23T03:57:02;3.65;;;2.53;;
46230;SDS011;31949;51.404;-0.038;2022-07-23T03:59:31;2.72;;;2.40;;
46230;SDS011;31949;51.404;-0.038;2022-07-23T04:01:59;4.00;;;2.35;;
46230;SDS011;31949;51.404;-0.038;2022-07-23T04:04:26;4.45;;;2.60;;
46230;SDS011;31949;51.404;-0.038;2022-07-23T04:06:54;5.45;;;2.30;;
46230;SDS011;31949;51.404;-0.038;2022-07-23T04:09:21;3.88;;;2.75;;
46230;SDS011;31949;51.404;-0.038;2022-07-23T04:11:49;3.85;;;1.90;;
46230;SDS011;31949;51.404;-0.038;2022-07-23T04:14:16;3.65;;;2.28;;
46230;SDS011;31949;51.404;-0.038;2022-07-23T04:16:43;4.95;;;2.60;;
46230;SDS011;31949;51.404;-0.038;2022-07-23T04:19:11;6.63;;;2.10;;
46230;SDS011;31949;51.404;-0.038;2022-07-23T04:21:53;6.22;;;2.58;;
46230;SDS011;31949;51.404;-0.038;2022-07-23T04:24:20;4.95;;;2.65;;
46230;SDS011;31949;51.404;-0.038;2022-07-23T04:26:47;3.63;;;2.35;;
46230;SDS011;31949;51.404;-0.038;2022-07-23T04:29:15;6.20;;;2.65;;
46230;SDS011;31949;51.404;-0.038;2022-07-23T04:31:43;5.43;;;2.25;;
46230;SDS011;31949;51.404;-0.038;2022-07-23T04:34:10;3.25;;;2.03;;
46230;SDS011;31949;51.404;-0.038;2022-07-23T04:36:37;4.38;;;2.63;;
46230;SDS011;31949;51.404;-0.038;2022-07-23T04:39:04;4.97;;;2.80;;
46230;SDS011;31949;51.404;-0.038;2022-07-23T04:41:33;5.15;;;2.33;;
46230;SDS011;31949;51.404;-0.038;2022-07-23T04:44:01;4.63;;;2.60;;
46230;SDS011;31949;51.404;-0.038;2022-07-23T04:46:28;4.90;;;2.35;;
46230;SDS011;31949;51.404;-0.038;2022-07-23T04:48:56;3.80;;;2.22;;
46230;SDS011;31949;51.404;-0.038;2022-07-23T04:51:23;4.20;;;2.42;;
46230;SDS011;31949;51.404;-0.038;2022-07-23T04:53:51;5.88;;;2.92;;
46230;SDS011;31949;51.404;-0.038;2022-07-23T04:56:19;4.03;;;3.40;;
46230;SDS011;31949;51.404;-0.038;2022-07-23T04:58:46;4.30;;;2.60;;
46230;SDS011;31949;51.404;-0.038;2022-07-23T05:01:14;4.57;;;2.90;;
46230;SDS011;31949;51.404;-0.038;2022-07-23T05:03:41;3.95;;;2.95;;
46230;SDS011;31949;51.404;-0.038;2022-07-23T05:06:09;4.60;;;3.15;;
46230;SDS011;31949;51.404;-0.038;2022-07-23T05:08:36;4.90;;;3.08;;
46230;SDS011;31949;51.404;-0.038;2022-07-23T05:11:03;4.88;;;3.45;;
46230;SDS011;31949;51.404;-0.038;2022-07-23T05:13:30;5.88;;;2.90;;
46230;SDS011;31949;51.404;-0.038;2022-07-23T05:15:58;4.65;;;2.88;;
46230;SDS011;31949;51.404;-0.038;2022-07-23T05:18:25;6.22;;;3.10;;
46230;SDS011;31949;51.404;-0.038;2022-07-23T05:20:53;9.73;;;4.00;;
46230;SDS011;31949;51.404;-0.038;2022-07-23T05:23:21;4.28;;;3.25;;
46230;SDS011;31949;51.404;-0.038;2022-07-23T05:25:49;6.88;;;3.45;;
46230;SDS011;31949;51.404;-0.038;2022-07-23T05:28:17;5.22;;;3.53;;
46230;SDS011;31949;51.404;-0.038;2022-07-23T05:30:49;5.72;;;4.43;;
46230;SDS011;31949;51.404;-0.038;2022-07-23T05:33:20;5.40;;;3.65;;
46230;SDS011;31949;51.404;-0.038;2022-07-23T05:35:47;6.43;;;4.30;;
46230;SDS011;31949;51.404;-0.038;2022-07-23T05:38:27;9.35;;;4.57;;
46230;SDS011;31949;51.404;-0.038;2022-07-23T05:40:57;7.45;;;4.07;;
46230;SDS011;31949;51.404;-0.038;2022-07-23T05:43:25;9.43;;;4.22;;
46230;SDS011;31949;51.404;-0.038;2022-07-23T05:45:53;5.80;;;3.80;;
46230;SDS011;31949;51.404;-0.038;2022-07-23T05:48:21;8.23;;;3.58;;
46230;SDS011;31949;51.404;-0.038;2022-07-23T05:50:57;7.95;;;4.60;;
46230;SDS011;31949;51.404;-0.038;2022-07-23T05:53:29;4.95;;;3.28;;
46230;SDS011;31949;51.404;-0.038;2022-07-23T05:56:00;4.35;;;3.47;;
46230;SDS011;31949;51.404;-0.038;2022-07-23T05:58:29;7.22;;;2.92;;
46230;SDS011;31949;51.404;-0.038;2022-07-23T06:00:56;6.88;;;4.07;;
46230;SDS011;31949;51.404;-0.038;2022-07-23T06:03:24;5.85;;;3.28;;
46230;SDS011;31949;51.404;-0.038;2022-07-23T06:05:51;4.25;;;2.83;;
46230;SDS011;31949;51.404;-0.038;2022-07-23T06:08:18;5.55;;;3.40;;
46230;SDS011;31949;51.404;-0.038;2022-07-23T06:10:46;5.20;;;2.90;;
46230;SDS011;31949;51.404;-0.038;2022-07-23T06:13:13;4.43;;;3.15;;
46230;SDS011;31949;51.404;-0.038;2022-07-23T06:15:40;4.30;;;3.05;;
46230;SDS011;31949;51.404;-0.038;2022-07-23T06:18:08;3.80;;;3.17;;
46230;SDS011;31949;51.404;-0.038;2022-07-23T06:20:37;4.18;;;2.50;;
46230;SDS011;31949;51.404;-0.038;2022-07-23T06:23:05;3.92;;;3.15;;
46230;SDS011;31949;51.404;-0.038;2022-07-23T06:25:32;6.00;;;3.67;;
46230;SDS011;31949;51.404;-0.038;2022-07-23T06:27:59;7.80;;;3.65;;
46230;SDS011;31949;51.404;-0.038;2022-07-23T06:30:27;7.80;;;3.17;;
46230;SDS011;31949;51.404;-0.038;2022-07-23T06:32:54;6.50;;;3.22;;
46230;SDS011;31949;51.404;-0.038;2022-07-23T06:35:21;5.90;;;3.70;;
46230;SDS011;31949;51.404;-0.038;2022-07-23T06:37:49;9.25;;;3.42;;
46230;SDS011;31949;51.404;-0.038;2022-07-23T06:40:16;7.70;;;3.33;;
46230;SDS011;31949;51.404;-0.038;2022-07-23T06:42:43;4.85;;;3.22;;
46230;SDS011;31949;51.404;-0.038;2022-07-23T06:45:16;8.15;;;4.05;;
46230;SDS011;31949;51.404;-0.038;2022-07-23T06:47:43;4.10;;;2.55;;
46230;SDS011;31949;51.404;-0.038;2022-07-23T06:50:11;7.15;;;3.80;;
46230;SDS011;31949;51.404;-0.038;2022-07-23T06:52:38;4.18;;;2.78;;
46230;SDS011;31949;51.404;-0.038;2022-07-23T06:55:08;6.60;;;3.10;;
46230;SDS011;31949;51.404;-0.038;2022-07-23T06:57:37;5.70;;;3.72;;
46230;SDS011;31949;51.404;-0.038;2022-07-23T07:00:05;5.32;;;2.60;;
46230;SDS011;31949;51.404;-0.038;2022-07-23T07:02:33;6.50;;;3.50;;
46230;SDS011;31949;51.404;-0.038;2022-07-23T07:05:04;5.00;;;3.42;;
46230;SDS011;31949;51.404;-0.038;2022-07-23T07:07:33;7.57;;;3.83;;
46230;SDS011;31949;51.404;-0.038;2022-07-23T07:10:02;4.50;;;3.45;;
46230;SDS011;31949;51.404;-0.038;2022-07-23T07:12:30;6.72;;;3.72;;
46230;SDS011;31949;51.404;-0.038;2022-07-23T07:14:58;5.07;;;3.42;;
46230;SDS011;31949;51.404;-0.038;2022-07-23T07:17:25;6.68;;;3.10;;
46230;SDS011;31949;51.404;-0.038;2022-07-23T07:19:52;6.95;;;3.30;;
46230;SDS011;31949;51.404;-0.038;2022-07-23T07:22:20;3.35;;;3.03;;
46230;SDS011;31949;51.404;-0.038;2022-07-23T07:24:47;5.07;;;3.25;;
46230;SDS011;31949;51.404;-0.038;2022-07-23T07:27:14;11.38;;;4.55;;
46230;SDS011;31949;51.404;-0.038;2022-07-23T07:29:41;10.27;;;3.97;;
46230;SDS011;31949;51.404;-0.038;2022-07-23T07:32:08;7.15;;;3.22;;
46230;SDS011;31949;51.404;-0.038;2022-07-23T07:34:36;8.13;;;4.00;;
46230;SDS011;31949;51.404;-0.038;2022-07-23T07:37:03;8.40;;;3.83;;
46230;SDS011;31949;51.404;-0.038;2022-07-23T07:39:30;6.30;;;3.90;;
46230;SDS011;31949;51.404;-0.038;2022-07-23T07:41:57;8.55;;;4.00;;
46230;SDS011;31949;51.404;-0.038;2022-07-23T07:44:25;9.43;;;3.47;;
46230;SDS011;31949;51.404;-0.038;2022-07-23T07:46:52;6.70;;;2.72;;
46230;SDS011;31949;51.404;-0.038;2022-07-23T07:49:19;3.58;;;2.78;;
46230;SDS011;31949;51.404;-0.038;2022-07-23T07:51:54;7.35;;;3.55;;
46230;SDS011;31949;51.404;-0.038;2022-07-23T07:54:21;4.72;;;2.88;;
46230;SDS011;31949;51.404;-0.038;2022-07-23T07:56:50;6.35;;;3.63;;
46230;SDS011;31949;51.404;-0.038;2022-07-23T07:59:17;7.32;;;3.10;;
46230;SDS011;31949;51.404;-0.038;2022-07-23T08:01:50;6.43;;;2.83;;
46230;SDS011;31949;51.404;-0.038;2022-07-23T08:04:18;3.65;;;2.63;;
46230;SDS011;31949;51.404;-0.038;2022-07-23T08:06:45;2.72;;;2.20;;
46230;SDS011;31949;51.404;-0.038;2022-07-23T08:09:13;4.45;;;2.70;;
46230;SDS011;31949;51.404;-0.038;2022-07-23T08:11:40;3.28;;;2.28;;
46230;SDS011;31949;51.404;-0.038;2022-07-23T08:14:07;4.13;;;2.50;;
46230;SDS011;31949;51.404;-0.038;2022-07-23T08:16:35;7.50;;;2.83;;
46230;SDS011;31949;51.404;-0.038;2022-07-23T08:19:23;7.18;;;2.85;;
46230;SDS011;31949;51.404;-0.038;2022-07-23T08:21:50;6.30;;;2.90;;
46230;SDS011;31949;51.404;-0.038;2022-07-23T08:24:18;5.60;;;3.47;;
46230;SDS011;31949;51.404;-0.038;2022-07-23T08:26:45;6.47;;;3.63;;
46230;SDS011;31949;51.404;-0.038;2022-07-23T08:29:12;8.70;;;3.13;;
46230;SDS011;31949;51.404;-0.038;2022-07-23T08:31:40;4.97;;;2.80;;
46230;SDS011;31949;51.404;-0.038;2022-07-23T08:34:07;7.45;;;2.90;;
46230;SDS011;31949;51.404;-0.038;2022-07-23T08:36:34;3.40;;;2.42;;
46230;SDS011;31949;51.404;-0.038;2022-07-23T08:39:01;4.75;;;3.13;;
46230;SDS011;31949;51.404;-0.038;2022-07-23T08:41:30;2.55;;;2.00;;
46230;SDS011;31949;51.404;-0.038;2022-07-23T08:43:57;4.65;;;2.83;;
46230;SDS011;31949;51.404;-0.038;2022-07-23T08:46:28;4.80;;;2.78;;
46230;SDS011;31949;51.404;-0.038;2022-07-23T08:48:55;4.75;;;3.00;;
46230;SDS011;31949;51.404;-0.038;2022-07-23T08:51:25;5.55;;;2.92;;
46230;SDS011;31949;51.404;-0.038;2022-07-23T08:53:56;4.15;;;2.85;;
46230;SDS011;31949;51.404;-0.038;2022-07-23T08:56:24;4.22;;;2.67;;
46230;SDS011;31949;51.404;-0.038;2022-07-23T08:58:53;3.78;;;2.47;;
46230;SDS011;31949;51.404;-0.038;2022-07-23T09:01:21;4.07;;;2.80;;
46230;SDS011;31949;51.404;-0.038;2022-07-23T09:03:48;8.20;;;3.25;;
46230;SDS011;31949;51.404;-0.038;2022-07-23T09:06:16;5.57;;;3.10;;
46230;SDS011;31949;51.404;-0.038;2022-07-23T09:08:43;4.20;;;2.30;;
46230;SDS011;31949;51.404;-0.038;2022-07-23T09:11:16;5.43;;;2.30;;
46230;SDS011;31949;51.404;-0.038;2022-07-23T09:13:47;4.75;;;2.67;;
46230;SDS011;31949;51.404;-0.038;2022-07-23T09:16:23;5.25;;;3.03;;
46230;SDS011;31949;51.404;-0.038;2022-07-23T09:18:54;7.38;;;2.88;;
46230;SDS011;31949;51.404;-0.038;2022-07-23T09:21:30;6.30;;;2.70;;
46230;SDS011;31949;51.404;-0.038;2022-07-23T09:24:09;7.35;;;2.08;;
46230;SDS011;31949;51.404;-0.038;2022-07-23T09:26:38;2.70;;;2.05;;
46230;SDS011;31949;51.404;-0.038;2022-07-23T09:31:45;5.55;;;2.30;;
46230;SDS011;31949;51.404;-0.038;2022-07-23T09:34:25;3.80;;;2.72;;
46230;SDS011;31949;51.404;-0.038;2022-07-23T09:36:57;4.07;;;2.10;;
46230;SDS011;31949;51.404;-0.038;2022-07-23T09:39:34;5.28;;;2.35;;
46230;SDS011;31949;51.404;-0.038;2022-07-23T09:44:59;3.05;;;2.28;;
46230;SDS011;31949;51.404;-0.038;2022-07-23T09:47:33;4.63;;;2.30;;
46230;SDS011;31949;51.404;-0.038;2022-07-23T09:52:33;1.88;;;1.52;;
46230;SDS011;31949;51.404;-0.038;2022-07-23T09:55:03;1.70;;;1.60;;
46230;SDS011;31949;51.404;-0.038;2022-07-23T09:57:32;4.07;;;1.95;;
46230;SDS011;31949;51.404;-0.038;2022-07-23T10:00:00;3.30;;;1.63;;
46230;SDS011;31949;51.404;-0.038;2022-07-23T10:02:34;3.80;;;1.83;;
46230;SDS011;31949;51.404;-0.038;2022-07-23T10:05:20;4.68;;;1.70;;
46230;SDS011;31949;51.404;-0.038;2022-07-23T10:08:11;5.18;;;2.53;;
46230;SDS011;31949;51.404;-0.038;2022-07-23T10:10:57;3.00;;;1.90;;
46230;SDS011;31949;51.404;-0.038;2022-07-23T10:13:36;3.65;;;1.83;;
46230;SDS011;31949;51.404;-0.038;2022-07-23T10:16:34;4.60;;;1.85;;
46230;SDS011;31949;51.404;-0.038;2022-07-23T10:19:02;2.08;;;1.42;;
46230;SDS011;31949;51.404;-0.038;2022-07-23T10:30:09;2.30;;;1.90;;
46230;SDS011;31949;51.404;-0.038;2022-07-23T10:35:36;1.58;;;1.20;;
46230;SDS011;31949;51.404;-0.038;2022-07-23T10:38:27;3.22;;;1.40;;
46230;SDS011;31949;51.404;-0.038;2022-07-23T10:40:59;11.65;;;2.00;;
46230;SDS011;31949;51.404;-0.038;2022-07-23T10:43:28;3.63;;;1.40;;
46230;SDS011;31949;51.404;-0.038;2022-07-23T10:54:42;2.22;;;2.03;;
46230;SDS011;31949;51.404;-0.038;2022-07-23T10:57:12;3.22;;;1.50;;
46230;SDS011;31949;51.404;-0.038;2022-07-23T11:02:36;2.38;;;1.45;;
46230;SDS011;31949;51.404;-0.038;2022-07-23T11:05:05;2.15;;;1.20;;
46230;SDS011;31949;51.404;-0.038;2022-07-23T11:07:34;3.30;;;1.92;;
46230;SDS011;31949;51.404;-0.038;2022-07-23T11:10:03;3.75;;;1.98;;
46230;SDS011;31949;51.404;-0.038;2022-07-23T11:12:31;1.80;;;1.30;;
46230;SDS011;31949;51.404;-0.038;2022-07-23T11:15:03;1.30;;;1.20;;
46230;SDS011;31949;51.404;-0.038;2022-07-23T11:17:40;3.22;;;1.30;;
46230;SDS011;31949;51.404;-0.038;2022-07-23T11:20:28;2.72;;;1.30;;
46230;SDS011;31949;51.404;-0.038;2022-07-23T11:22:57;2.05;;;1.38;;
46230;SDS011;31949;51.404;-0.038;2022-07-23T11:27:54;2.88;;;2.47;;
46230;SDS011;31949;51.404;-0.038;2022-07-23T11:30:37;2.58;;;1.40;;
46230;SDS011;31949;51.404;-0.038;2022-07-23T11:35:35;1.98;;;1.30;;
46230;SDS011;31949;51.404;-0.038;2022-07-23T11:38:14;1.45;;;1.27;;
46230;SDS011;31949;51.404;-0.038;2022-07-23T11:40:43;2.67;;;1.20;;
46230;SDS011;31949;51.404;-0.038;2022-07-23T11:43:12;2.05;;;1.27;;
46230;SDS011;31949;51.404;-0.038;2022-07-23T11:45:42;2.50;;;1.38;;
46230;SDS011;31949;51.404;-0.038;2022-07-23T11:48:20;2.70;;;1.55;;
46230;SDS011;31949;51.404;-0.038;2022-07-23T11:50:49;2.40;;;1.40;;
46230;SDS011;31949;51.404;-0.038;2022-07-23T11:53:25;2.10;;;1.38;;
46230;SDS011;31949;51.404;-0.038;2022-07-23T11:56:02;1.55;;;1.38;;
46230;SDS011;31949;51.404;-0.038;2022-07-23T11:58:37;2.67;;;1.10;;
46230;SDS011;31949;51.404;-0.038;2022-07-23T12:01:05;2.15;;;1.88;;
46230;SDS011;31949;51.404;-0.038;2022-07-23T12:04:00;3.47;;;1.80;;
46230;SDS011;31949;51.404;-0.038;2022-07-23T12:06:27;1.77;;;1.40;;
46230;SDS011;31949;51.404;-0.038;2022-07-23T12:08:54;2.47;;;1.23;;
46230;SDS011;31949;51.404;-0.038;2022-07-23T12:11:22;2.05;;;1.20;;
46230;SDS011;31949;51.404;-0.038;2022-07-23T12:13:56;2.35;;;1.42;;
46230;SDS011;31949;51.404;-0.038;2022-07-23T12:16:24;2.72;;;1.50;;
46230;SDS011;31949;51.404;-0.038;2022-07-23T12:18:52;2.67;;;2.00;;
46230;SDS011;31949;51.404;-0.038;2022-07-23T12:21:19;2.88;;;1.50;;
46230;SDS011;31949;51.404;-0.038;2022-07-23T12:23:48;4.28;;;1.40;;
46230;SDS011;31949;51.404;-0.038;2022-07-23T12:26:15;3.38;;;1.27;;
46230;SDS011;31949;51.404;-0.038;2022-07-23T12:28:43;3.03;;;1.52;;
46230;SDS011;31949;51.404;-0.038;2022-07-23T12:31:25;4.07;;;1.50;;
46230;SDS011;31949;51.404;-0.038;2022-07-23T12:33:55;1.50;;;1.10;;
46230;SDS011;31949;51.404;-0.038;2022-07-23T12:36:36;3.10;;;1.30;;
46230;SDS011;31949;51.404;-0.038;2022-07-23T12:39:06;2.83;;;1.35;;
46230;SDS011;31949;51.404;-0.038;2022-07-23T12:41:52;2.70;;;1.50;;
46230;SDS011;31949;51.404;-0.038;2022-07-23T12:44:19;2.15;;;1.40;;
46230;SDS011;31949;51.404;-0.038;2022-07-23T12:46:52;2.38;;;1.15;;
46230;SDS011;31949;51.404;-0.038;2022-07-23T12:51:53;1.70;;;1.00;;
46230;SDS011;31949;51.404;-0.038;2022-07-23T12:54:26;0.80;;;0.68;;
46230;SDS011;31949;51.404;-0.038;2022-07-23T12:56:54;1.42;;;1.13;;
46230;SDS011;31949;51.404;-0.038;2022-07-23T12:59:22;4.20;;;2.05;;
46230;SDS011;31949;51.404;-0.038;2022-07-23T13:01:55;2.67;;;1.27;;
46230;SDS011;31949;51.404;-0.038;2022-07-23T13:04:25;2.60;;;1.70;;
46230;SDS011;31949;51.404;-0.038;2022-07-23T13:06:54;2.58;;;1.27;;
46230;SDS011;31949;51.404;-0.038;2022-07-23T13:09:31;4.15;;;1.20;;
46230;SDS011;31949;51.404;-0.038;2022-07-23T13:12:04;3.83;;;1.35;;
46230;SDS011;31949;51.404;-0.038;2022-07-23T13:14:31;1.98;;;1.00;;
46230;SDS011;31949;51.404;-0.038;2022-07-23T13:16:59;3.00;;;1.30;;
46230;SDS011;31949;51.404;-0.038;2022-07-23T13:19:26;2.53;;;1.25;;
46230;SDS011;31949;51.404;-0.038;2022-07-23T13:21:53;1.52;;;1.02;;
46230;SDS011;31949;51.404;-0.038;2022-07-23T13:24:21;2.67;;;1.52;;
46230;SDS011;31949;51.404;-0.038;2022-07-23T13:26:48;1.15;;;0.85;;
46230;SDS011;31949;51.404;-0.038;2022-07-23T13:29:18;3.38;;;1.23;;
46230;SDS011;31949;51.404;-0.038;2022-07-23T13:31:46;1.10;;;1.00;;
46230;SDS011;31949;51.404;-0.038;2022-07-23T13:34:14;1.60;;;1.10;;
46230;SDS011;31949;51.404;-0.038;2022-07-23T13:36:43;1.25;;;1.15;;
46230;SDS011;31949;51.404;-0.038;2022-07-23T13:39:11;2.88;;;1.58;;
46230;SDS011;31949;51.404;-0.038;2022-07-23T13:41:38;1.25;;;1.10;;
46230;SDS011;31949;51.404;-0.038;2022-07-23T13:44:15;1.10;;;1.02;;
46230;SDS011;31949;51.404;-0.038;2022-07-23T13:46:48;1.95;;;1.27;;
46230;SDS011;31949;51.404;-0.038;2022-07-23T13:49:15;1.90;;;1.17;;
46230;SDS011;31949;51.404;-0.038;2022-07-23T13:51:43;1.75;;;1.00;;
46230;SDS011;31949;51.404;-0.038;2022-07-23T13:54:10;3.97;;;1.42;;
46230;SDS011;31949;51.404;-0.038;2022-07-23T13:56:37;2.35;;;0.90;;
46230;SDS011;31949;51.404;-0.038;2022-07-23T13:59:05;1.77;;;1.20;;
46230;SDS011;31949;51.404;-0.038;2022-07-23T14:01:33;5.03;;;1.58;;
46230;SDS011;31949;51.404;-0.038;2022-07-23T14:04:20;3.20;;;1.48;;
46230;SDS011;31949;51.404;-0.038;2022-07-23T14:06:48;2.08;;;1.38;;
46230;SDS011;31949;51.404;-0.038;2022-07-23T14:09:20;2.15;;;1.33;;
46230;SDS011;31949;51.404;-0.038;2022-07-23T14:11:48;1.48;;;1.38;;
46230;SDS011;31949;51.404;-0.038;2022-07-23T14:14:18;4.68;;;1.65;;
46230;SDS011;31949;51.404;-0.038;2022-07-23T14:16:46;2.75;;;1.42;;
46230;SDS011;31949;51.404;-0.038;2022-07-23T14:19:26;3.65;;;2.13;;
46230;SDS011;31949;51.404;-0.038;2022-07-23T14:21:56;2.97;;;1.40;;
46230;SDS011;31949;51.404;-0.038;2022-07-23T14:24:24;1.40;;;1.00;;
46230;SDS011;31949;51.404;-0.038;2022-07-23T14:26:59;3.88;;;1.40;;
46230;SDS011;31949;51.404;-0.038;2022-07-23T14:29:28;6.05;;;4.07;;
46230;SDS011;31949;51.404;-0.038;2022-07-23T14:31:56;5.60;;;3.17;;
46230;SDS011;31949;51.404;-0.038;2022-07-23T14:34:25;4.18;;;2.22;;
46230;SDS011;31949;51.404;-0.038;2022-07-23T14:36:54;6.22;;;2.00;;
46230;SDS011;31949;51.404;-0.038;2022-07-23T14:39:22;3.03;;;1.55;;
46230;SDS011;31949;51.404;-0.038;2022-07-23T14:41:50;2.75;;;1.58;;
46230;SDS011;31949;51.404;-0.038;2022-07-23T14:44:17;2.67;;;1.75;;
46230;SDS011;31949;51.404;-0.038;2022-07-23T14:46:44;4.93;;;2.70;;
46230;SDS011;31949;51.404;-0.038;2022-07-23T14:49:12;6.57;;;3.78;;
46230;SDS011;31949;51.404;-0.038;2022-07-23T14:51:39;2.67;;;2.45;;
46230;SDS011;31949;51.404;-0.038;2022-07-23T14:54:08;2.38;;;2.00;;
46230;SDS011;31949;51.404;-0.038;2022-07-23T14:56:36;4.10;;;1.73;;
46230;SDS011;31949;51.404;-0.038;2022-07-23T14:59:06;2.10;;;1.33;;
46230;SDS011;31949;51.404;-0.038;2022-07-23T15:01:36;3.03;;;1.25;;
46230;SDS011;31949;51.404;-0.038;2022-07-23T15:04:07;1.83;;;1.20;;
46230;SDS011;31949;51.404;-0.038;2022-07-23T15:06:57;3.15;;;1.35;;
46230;SDS011;31949;51.404;-0.038;2022-07-23T15:09:24;5.38;;;1.73;;
46230;SDS011;31949;51.404;-0.038;2022-07-23T15:11:51;4.00;;;2.15;;
46230;SDS011;31949;51.404;-0.038;2022-07-23T15:14:19;3.30;;;1.73;;
46230;SDS011;31949;51.404;-0.038;2022-07-23T15:16:54;4.40;;;2.00;;
46230;SDS011;31949;51.404;-0.038;2022-07-23T15:19:22;3.75;;;1.77;;
46230;SDS011;31949;51.404;-0.038;2022-07-23T16:01:10;2.75;;;1.80;;
46230;SDS011;31949;51.404;-0.038;2022-07-23T16:04:55;1.52;;;1.25;;
46230;SDS011;31949;51.404;-0.038;2022-07-23T16:08:03;1.48;;;1.38;;